Time;durP1;ratioP1;P1;durP2;ratioP2;P2;SDS_P1;SDS_P2;PMS_P1;PMS_P2;Temp;Humidity;BMP_temperature;BMP_pressure;BME280_temperature;BME280_humidity;BME280_pressure;Samples;Min_cycle;Max_cycle;Signal;HPM_P1;HPM_P2
2023/04/28 00:02:23;;;;;;;10.30;8.35;;;;;;;7.88;99.55;101180.97;4969819;28;20042;-67
2023/04/28 00:04:48;;;;;;;10.10;8.27;;;;;;;7.88;100.00;101180.97;4971084;28;20033;-66
2023/04/28 00:07:13;;;;;;;8.90;8.00;;;;;;;7.86;99.78;101174.84;4979396;28;20018;-66
2023/04/28 00:09:39;;;;;;;8.65;7.43;;;;;;;7.82;97.73;101185.88;4986744;28;20439;-66
2023/04/28 00:12:04;;;;;;;11.07;8.35;;;;;;;7.85;97.80;101180.84;4977675;28;20019;-66
2023/04/28 00:14:29;;;;;;;10.40;8.75;;;;;;;7.85;100.00;101180.84;4981399;28;20041;-66
2023/04/28 00:16:57;;;;;;;11.77;8.95;;;;;;;7.85;100.00;101174.78;4968394;28;20055;-66
2023/04/28 00:19:22;;;;;;;10.55;8.43;;;;;;;7.82;100.00;101170.38;4968719;28;20015;-66
2023/04/28 00:21:47;;;;;;;10.23;8.55;;;;;;;7.77;100.00;101158.97;4971965;28;20089;-66
2023/04/28 00:24:13;;;;;;;10.75;9.00;;;;;;;7.74;100.00;101156.19;4973010;28;20023;-66
2023/04/28 00:26:38;;;;;;;11.65;9.40;;;;;;;7.73;100.00;101162.19;4973443;28;20082;-66
2023/04/28 00:29:03;;;;;;;14.07;8.88;;;;;;;7.72;100.00;101157.84;4974444;28;20480;-66
2023/04/28 00:31:29;;;;;;;11.88;9.35;;;;;;;7.69;100.00;101159.47;4973558;28;20042;-65
2023/04/28 00:33:54;;;;;;;12.98;9.73;;;;;;;7.67;100.00;101153.34;4974052;28;20027;-66
2023/04/28 00:36:19;;;;;;;10.68;9.57;;;;;;;7.63;100.00;101154.00;4973239;28;20045;-66
2023/04/28 00:38:45;;;;;;;12.50;9.98;;;;;;;7.57;100.00;101146.81;4973766;28;20062;-66
2023/04/28 00:41:10;;;;;;;14.13;10.57;;;;;;;7.56;100.00;101139.03;4973369;28;20026;-66
2023/04/28 00:43:48;;;;;;;14.95;9.63;;;;;;;7.55;100.00;101134.69;4973316;28;20106;-66
2023/04/28 00:46:29;;;;;;;11.50;9.40;;;;;;;7.45;100.00;101121.34;4972462;28;20506;-66
2023/04/28 00:48:56;;;;;;;13.52;10.73;;;;;;;7.45;100.00;101120.44;4960768;28;20026;-66
2023/04/28 00:51:21;;;;;;;13.25;11.45;;;;;;;7.40;100.00;101127.94;4973072;28;20034;-67
2023/04/28 00:53:47;;;;;;;14.52;11.43;;;;;;;7.35;100.00;101132.00;4972724;28;20034;-66
2023/04/28 00:56:13;;;;;;;16.58;11.57;;;;;;;7.30;100.00;101123.16;4972042;28;20031;-66
2023/04/28 00:58:39;;;;;;;14.32;11.32;;;;;;;7.28;100.00;101114.44;4972891;28;20030;-66
2023/04/28 01:01:06;;;;;;;15.98;12.63;;;;;;;7.26;100.00;101110.91;4972970;28;20041;-66
2023/04/28 01:03:34;;;;;;;15.93;11.27;;;;;;;7.21;100.00;101108.97;4972659;28;20045;-66
2023/04/28 01:05:59;;;;;;;12.77;11.48;;;;;;;7.19;100.00;101108.03;4972582;28;20031;-66
2023/04/28 01:08:29;;;;;;;13.43;12.02;;;;;;;7.19;100.00;101109.72;4971816;28;20034;-66
2023/04/28 01:10:55;;;;;;;14.20;12.38;;;;;;;7.17;100.00;101107.06;4985497;28;20036;-66
2023/04/28 01:13:20;;;;;;;13.35;11.10;;;;;;;7.19;100.00;101102.00;4989676;28;20022;-66
2023/04/28 01:15:45;;;;;;;12.20;10.85;;;;;;;7.23;100.00;101106.50;4989770;28;20129;-67
2023/04/28 01:18:12;;;;;;;11.88;10.55;;;;;;;7.20;100.00;101107.22;4989665;28;20468;-65
2023/04/28 01:20:37;;;;;;;13.45;12.05;;;;;;;7.20;100.00;101099.50;4989601;28;20517;-66
2023/04/28 01:23:03;;;;;;;15.30;12.32;;;;;;;7.20;100.00;101081.44;4990354;28;20033;-66
2023/04/28 01:25:28;;;;;;;11.18;9.98;;;;;;;7.18;100.00;101071.84;4988821;28;20030;-66
2023/04/28 01:27:53;;;;;;;13.40;11.45;;;;;;;7.11;100.00;101065.50;4989833;28;20019;-66
2023/04/28 01:30:19;;;;;;;14.27;12.15;;;;;;;7.08;100.00;101052.47;4988745;28;20038;-66
2023/04/28 01:32:44;;;;;;;14.18;11.07;;;;;;;6.97;100.00;101063.16;4989528;28;20095;-66
2023/04/28 01:35:09;;;;;;;16.20;12.23;;;;;;;6.85;100.00;101060.81;4988849;28;20060;-66
2023/04/28 01:37:34;;;;;;;17.05;12.02;;;;;;;6.70;100.00;101063.50;4990328;28;20035;-66
2023/04/28 01:40:00;;;;;;;12.45;10.75;;;;;;;6.69;100.00;101064.28;4989372;28;20026;-66
2023/04/28 01:42:25;;;;;;;14.40;11.98;;;;;;;6.72;100.00;101064.47;4990213;28;20022;-66
2023/04/28 01:44:51;;;;;;;14.25;11.55;;;;;;;6.73;100.00;101063.66;4989653;28;20041;-66
2023/04/28 01:47:16;;;;;;;16.25;12.63;;;;;;;6.75;100.00;101055.09;4990149;28;20045;-66
2023/04/28 01:49:41;;;;;;;16.25;12.38;;;;;;;6.79;100.00;101057.03;4990032;28;20026;-66
2023/04/28 01:52:06;;;;;;;14.23;12.07;;;;;;;6.71;100.00;101054.09;4990059;28;20054;-66
2023/04/28 01:54:32;;;;;;;13.48;11.85;;;;;;;6.75;100.00;101055.09;4989639;28;20527;-66
2023/04/28 01:56:57;;;;;;;14.45;11.93;;;;;;;6.70;100.00;101047.16;4990355;28;20034;-66
2023/04/28 01:59:22;;;;;;;15.05;12.30;;;;;;;6.65;100.00;101049.50;4989561;28;20030;-66
2023/04/28 02:01:48;;;;;;;14.70;12.15;;;;;;;6.64;100.00;101050.28;4989917;28;20034;-66
2023/04/28 02:04:13;;;;;;;15.60;12.38;;;;;;;6.66;100.00;101043.53;4989521;28;20052;-66
2023/04/28 02:06:38;;;;;;;15.20;12.27;;;;;;;6.68;100.00;101043.63;4970555;28;20063;-66
2023/04/28 02:09:04;;;;;;;16.38;12.45;;;;;;;6.66;100.00;101045.22;4970622;28;20030;-66
2023/04/28 02:11:29;;;;;;;13.32;11.80;;;;;;;6.63;100.00;101045.97;4970717;28;20031;-67
2023/04/28 02:13:54;;;;;;;16.08;13.13;;;;;;;6.65;100.00;101049.50;4970694;28;20039;-66
2023/04/28 02:16:20;;;;;;;16.55;12.88;;;;;;;6.67;100.00;101047.91;4970036;28;20538;-66
2023/04/28 02:18:45;;;;;;;14.90;12.18;;;;;;;6.69;100.00;101041.13;4970641;28;20037;-66
2023/04/28 02:21:11;;;;;;;13.50;12.00;;;;;;;6.66;100.00;101034.91;4974784;28;20506;-66
2023/04/28 02:23:37;;;;;;;15.25;12.70;;;;;;;6.68;100.00;101034.22;4989607;28;20120;-67
2023/04/28 02:26:03;;;;;;;17.75;13.32;;;;;;;6.59;100.00;101024.31;4989409;28;20018;-66
2023/04/28 02:28:28;;;;;;;14.27;12.77;;;;;;;6.60;100.00;101020.94;4988523;28;20038;-66
2023/04/28 02:31:03;;;;;;;14.40;13.00;;;;;;;6.62;100.00;101013.28;4975580;28;20018;-66
2023/04/28 02:33:29;;;;;;;15.25;12.95;;;;;;;6.66;100.00;101004.91;4988995;28;20050;-66
2023/04/28 02:36:01;;;;;;;14.98;12.88;;;;;;;6.63;100.00;101003.88;4989005;28;20035;-67
2023/04/28 02:38:27;;;;;;;19.73;14.57;;;;;;;6.48;100.00;100995.44;4987902;28;20382;-67
2023/04/28 02:41:07;;;;;;;15.18;13.40;;;;;;;6.42;100.00;100979.66;4988169;28;20069;-66
2023/04/28 02:43:33;;;;;;;19.63;13.57;;;;;;;6.45;100.00;100982.41;4986923;28;20098;-66
2023/04/28 02:45:59;;;;;;;16.45;13.43;;;;;;;6.41;100.00;100972.75;4988479;28;20469;-66
2023/04/28 02:48:25;;;;;;;16.67;13.30;;;;;;;6.36;100.00;100967.38;4987627;28;20584;-66
2023/04/28 02:50:51;;;;;;;16.75;13.32;;;;;;;6.38;100.00;100951.13;4988771;28;20056;-66
2023/04/28 02:53:20;;;;;;;16.38;14.13;;;;;;;6.34;100.00;100944.94;4987573;28;20021;-66
2023/04/28 02:55:46;;;;;;;18.20;14.30;;;;;;;6.29;100.00;100936.09;4988604;28;20030;-66
2023/04/28 02:58:11;;;;;;;18.10;13.52;;;;;;;6.28;100.00;100939.50;4987858;28;20029;-66
2023/04/28 03:00:36;;;;;;;19.02;13.82;;;;;;;6.30;100.00;100946.47;4988625;28;20264;-66
2023/04/28 03:03:02;;;;;;;19.30;15.45;;;;;;;6.38;100.00;100961.41;4986720;28;20028;-66
2023/04/28 03:05:27;;;;;;;18.42;14.82;;;;;;;6.43;100.00;100945.41;4979127;28;20394;-67
2023/04/28 03:07:52;;;;;;;17.85;13.35;;;;;;;6.45;100.00;100950.63;4969834;28;20448;-66
2023/04/28 03:10:18;;;;;;;16.70;13.80;;;;;;;6.52;100.00;100954.41;4970121;28;20027;-66
2023/04/28 03:12:43;;;;;;;18.52;13.88;;;;;;;6.53;100.00;100945.88;4967632;28;20027;-66
2023/04/28 03:15:09;;;;;;;19.67;14.75;;;;;;;6.52;100.00;100946.66;4970092;28;20110;-66
2023/04/28 03:17:40;;;;;;;22.10;14.57;;;;;;;6.56;100.00;100941.78;4969005;28;20411;-66
2023/04/28 03:20:06;;;;;;;;;;;;;;;6.57;100.00;100934.91;4969714;28;20085;-66
2023/04/28 03:22:31;;;;;;;18.70;15.27;;;;;;;6.61;100.00;100939.41;4969709;28;19922;-66
2023/04/28 03:24:57;;;;;;;20.10;16.15;;;;;;;6.61;100.00;100936.84;4970122;28;20089;-67
2023/04/28 03:27:25;;;;;;;20.33;15.63;;;;;;;6.65;100.00;100938.75;4970184;28;20023;-66
2023/04/28 03:29:51;;;;;;;18.52;15.68;;;;;;;6.70;100.00;100949.28;4969168;28;20043;-65
2023/04/28 03:32:16;;;;;;;16.88;14.85;;;;;;;6.69;100.00;100948.38;4969626;28;20023;-66
2023/04/28 03:34:42;;;;;;;18.45;14.98;;;;;;;6.73;100.00;100944.28;4970063;28;20124;-66
2023/04/28 03:37:07;;;;;;;19.00;14.90;;;;;;;6.76;100.00;100948.72;4970409;28;20022;-66
2023/04/28 03:39:33;;;;;;;18.80;15.05;;;;;;;6.78;100.00;100947.09;4968765;28;20035;-66
2023/04/28 03:41:58;;;;;;;17.70;14.73;;;;;;;6.79;100.00;100946.28;4968344;28;20053;-66
2023/04/28 03:44:23;;;;;;;17.23;15.43;;;;;;;6.79;100.00;100939.44;4969236;28;20057;-66
2023/04/28 03:46:49;;;;;;;20.80;15.93;;;;;;;6.83;100.00;100938.78;4969399;28;20027;-66
2023/04/28 03:49:15;;;;;;;18.83;15.90;;;;;;;6.85;100.00;100938.88;4969548;28;20030;-66
2023/04/28 03:51:40;;;;;;;20.15;15.75;;;;;;;6.89;100.00;100940.75;4969397;28;20015;-65
2023/04/28 03:54:06;;;;;;;20.42;15.60;;;;;;;6.90;100.00;100945.13;4969726;28;20527;-66
2023/04/28 03:56:31;;;;;;;20.70;16.65;;;;;;;6.91;100.00;100936.56;4969305;28;20449;-66
2023/04/28 03:58:56;;;;;;;19.63;15.10;;;;;;;6.92;100.00;100930.63;4978278;28;20026;-66
2023/04/28 04:01:22;;;;;;;19.05;15.75;;;;;;;6.93;100.00;100919.50;4987124;28;20121;-66
2023/04/28 04:03:47;;;;;;;20.48;16.63;;;;;;;6.88;100.00;100920.97;4978686;28;20230;-66
2023/04/28 04:06:13;;;;;;;20.65;16.15;;;;;;;6.89;100.00;100912.41;4970987;28;20042;-65
2023/04/28 04:08:39;;;;;;;18.58;15.23;;;;;;;6.89;100.00;100909.84;4988243;28;20034;-66
2023/04/28 04:11:04;;;;;;;18.83;16.83;;;;;;;6.92;100.00;100910.03;4987838;28;20039;-66
2023/04/28 04:13:30;;;;;;;19.95;16.15;;;;;;;6.95;100.00;100914.41;4979206;28;20415;-66
2023/04/28 04:15:55;;;;;;;17.80;14.88;;;;;;;6.96;100.00;100911.91;4967982;28;20066;-65
2023/04/28 04:18:20;;;;;;;17.05;15.27;;;;;;;7.00;100.00;100912.09;4968647;28;20062;-66
2023/04/28 04:20:46;;;;;;;17.88;15.55;;;;;;;7.02;100.00;100910.44;4968295;28;20058;-66
2023/04/28 04:23:11;;;;;;;18.95;15.95;;;;;;;7.05;100.00;100911.47;4967202;28;20082;-66
2023/04/28 04:25:36;;;;;;;22.15;17.80;;;;;;;7.06;100.00;100917.50;4966829;28;20066;-66
2023/04/28 04:28:02;;;;;;;20.52;16.95;;;;;;;7.08;100.00;100916.78;4966771;28;20031;-66
2023/04/28 04:30:27;;;;;;;20.70;17.15;;;;;;;7.12;100.00;100917.81;4967446;28;20509;-66
2023/04/28 04:32:52;;;;;;;19.52;15.93;;;;;;;7.13;100.00;100916.09;4967382;28;20126;-66
2023/04/28 04:35:18;;;;;;;20.20;16.63;;;;;;;7.15;100.00;100917.97;4979989;28;20026;-66
2023/04/28 04:37:43;;;;;;;22.17;17.02;;;;;;;7.17;100.00;100916.34;4966635;28;20055;-66
2023/04/28 04:40:09;;;;;;;21.63;17.88;;;;;;;7.16;100.00;100914.56;4965714;28;20546;-66
2023/04/28 04:42:34;;;;;;;18.83;16.83;;;;;;;7.18;100.00;100906.88;4966298;28;20035;-66
2023/04/28 04:45:00;;;;;;;20.88;18.30;;;;;;;7.19;100.00;100904.41;4967773;28;20181;-65
2023/04/28 04:47:25;;;;;;;23.52;17.83;;;;;;;7.21;100.00;100899.31;4968253;28;20054;-66
2023/04/28 04:49:51;;;;;;;20.38;17.88;;;;;;;7.24;100.00;100894.31;4969536;28;20372;-66
2023/04/28 04:52:16;;;;;;;18.85;16.85;;;;;;;7.27;100.00;100883.22;4968719;28;20026;-66
2023/04/28 04:54:42;;;;;;;20.48;16.25;;;;;;;7.30;100.00;100875.66;4969515;28;20045;-65
2023/04/28 04:57:07;;;;;;;24.85;17.92;;;;;;;7.33;100.00;100875.81;4969258;28;20493;-66
2023/04/28 04:59:32;;;;;;;21.65;17.77;;;;;;;7.36;100.00;100883.66;4969468;28;20027;-65
2023/04/28 05:01:58;;;;;;;19.67;17.48;;;;;;;7.38;100.00;100884.63;4968883;28;20133;-66
2023/04/28 05:04:23;;;;;;;20.20;16.67;;;;;;;7.42;100.00;100886.53;4967877;28;20035;-66
2023/04/28 05:06:48;;;;;;;21.02;18.70;;;;;;;7.44;100.00;100889.19;4978079;28;20040;-66
2023/04/28 05:09:14;;;;;;;23.50;17.85;;;;;;;7.44;100.00;100879.75;4977232;28;20037;-66
2023/04/28 05:11:39;;;;;;;23.20;18.58;;;;;;;7.47;100.00;100884.16;4972244;28;20129;-66
2023/04/28 05:14:05;;;;;;;21.33;18.30;;;;;;;7.50;100.00;100878.28;4984876;28;20027;-66
2023/04/28 05:16:30;;;;;;;20.42;17.90;;;;;;;7.53;100.00;100879.28;4990110;28;20124;-66
2023/04/28 05:18:55;;;;;;;21.88;18.58;;;;;;;7.57;100.00;100877.75;4990116;28;20028;-66
2023/04/28 05:21:21;;;;;;;20.42;17.65;;;;;;;7.63;100.00;100879.69;4989618;28;20030;-66
2023/04/28 05:23:46;;;;;;;23.15;19.73;;;;;;;7.64;100.00;100866.00;4990677;28;20127;-66
2023/04/28 05:26:12;;;;;;;22.85;18.70;;;;;;;7.69;100.00;100864.50;4990526;28;20081;-66
2023/04/28 05:28:39;;;;;;;20.95;17.98;;;;;;;7.71;100.00;100862.88;4990244;28;20062;-66
2023/04/28 05:31:05;;;;;;;21.05;17.25;;;;;;;7.76;100.00;100866.53;4989882;28;20101;-66
2023/04/28 05:33:30;;;;;;;20.70;18.00;;;;;;;7.77;100.00;100870.88;4990107;28;20109;-66
2023/04/28 05:35:55;;;;;;;20.80;18.17;;;;;;;7.81;100.00;100869.31;4988449;28;20386;-66
2023/04/28 05:38:21;;;;;;;20.80;18.50;;;;;;;7.83;100.00;100871.94;4989268;28;20161;-66
2023/04/28 05:40:46;;;;;;;20.65;18.05;;;;;;;7.84;100.00;100874.63;4989963;28;20045;-65
2023/04/28 05:43:11;;;;;;;22.10;19.77;;;;;;;7.86;100.00;100866.94;4989519;28;20073;-65
2023/04/28 05:45:37;;;;;;;26.13;19.23;;;;;;;7.89;100.00;100872.22;4989383;28;20026;-66
2023/04/28 05:48:03;;;;;;;21.45;18.25;;;;;;;7.90;100.00;100880.03;4989531;28;20033;-65
2023/04/28 05:50:29;;;;;;;21.33;18.70;;;;;;;7.93;100.00;100866.41;4990305;28;20411;-66
2023/04/28 05:52:54;;;;;;;20.50;18.45;;;;;;;7.98;100.00;100879.47;4989430;28;20022;-66
2023/04/28 05:55:20;;;;;;;20.35;18.17;;;;;;;7.98;100.00;100866.59;4976683;28;20014;-66
2023/04/28 05:57:46;;;;;;;22.23;19.60;;;;;;;8.03;100.00;100870.25;4989371;28;20033;-66
2023/04/28 06:00:12;;;;;;;23.25;20.30;;;;;;;8.09;100.00;100870.53;4964696;28;20456;-66
2023/04/28 06:02:37;;;;;;;19.58;17.67;;;;;;;8.16;100.00;100861.31;4989140;28;20061;-66
2023/04/28 06:05:03;;;;;;;20.20;18.20;;;;;;;8.21;100.00;100864.97;4983149;28;20163;-66
2023/04/28 06:07:28;;;;;;;21.65;18.65;;;;;;;8.27;100.00;100867.81;4983115;28;20061;-65
2023/04/28 06:09:53;;;;;;;20.95;17.88;;;;;;;8.31;100.00;100861.06;4989427;28;20030;-66
2023/04/28 06:12:19;;;;;;;20.10;17.95;;;;;;;8.35;100.00;100862.97;4990079;28;20058;-66
2023/04/28 06:14:44;;;;;;;21.00;18.48;;;;;;;8.39;100.00;100874.31;4989250;28;20026;-66
2023/04/28 06:17:09;;;;;;;20.23;18.20;;;;;;;8.43;100.00;100865.88;4988368;28;20403;-66
2023/04/28 06:19:35;;;;;;;19.70;17.70;;;;;;;8.49;100.00;100870.44;4989231;28;20045;-66
2023/04/28 06:22:00;;;;;;;20.02;17.75;;;;;;;8.55;100.00;100860.31;4977924;28;20062;-66
2023/04/28 06:24:25;;;;;;;19.50;17.33;;;;;;;8.63;100.00;100864.13;4969752;28;20205;-66
2023/04/28 06:26:51;;;;;;;18.30;16.40;;;;;;;8.74;100.00;100866.28;4970666;28;20364;-66
2023/04/28 06:29:16;;;;;;;21.33;18.13;;;;;;;8.79;100.00;100869.03;4982874;28;20030;-67
2023/04/28 06:31:41;;;;;;;20.15;17.20;;;;;;;8.84;100.00;100860.66;4970238;28;20482;-66
2023/04/28 06:34:07;;;;;;;19.92;17.95;;;;;;;8.89;100.00;100859.13;4983030;28;20085;-66
2023/04/28 06:36:32;;;;;;;20.02;17.98;;;;;;;8.93;100.00;100869.56;4970335;28;20027;-66
2023/04/28 06:38:58;;;;;;;21.17;17.38;;;;;;;8.96;100.00;100861.97;4970360;28;20058;-66
2023/04/28 06:41:23;;;;;;;19.63;16.90;;;;;;;9.00;100.00;100863.81;4970302;28;20041;-66
2023/04/28 06:43:49;;;;;;;18.60;16.70;;;;;;;9.05;100.00;100859.72;4970850;28;20443;-65
2023/04/28 06:46:15;;;;;;;20.48;18.20;;;;;;;9.11;100.00;100864.25;4970452;28;20057;-66
2023/04/28 06:48:40;;;;;;;17.95;16.15;;;;;;;9.17;100.00;100867.09;4971034;28;20439;-66
2023/04/28 06:51:05;;;;;;;20.38;16.52;;;;;;;9.21;100.00;100855.16;4969919;28;20029;-66
2023/04/28 06:53:31;;;;;;;18.75;16.48;;;;;;;9.27;100.00;100857.97;4973468;28;20038;-66
2023/04/28 06:55:56;;;;;;;19.63;17.60;;;;;;;9.32;100.00;100853.84;4989257;28;20100;-66
2023/04/28 06:58:21;;;;;;;17.70;15.80;;;;;;;9.40;100.00;100859.31;4976238;28;20101;-65
2023/04/28 07:00:47;;;;;;;18.83;16.80;;;;;;;9.45;100.00;100852.59;4978279;28;20027;-66
2023/04/28 07:03:18;;;;;;;17.83;16.05;;;;;;;9.45;100.00;100850.00;4986124;28;20045;-66
2023/04/28 07:05:43;;;;;;;18.20;16.17;;;;;;;9.48;100.00;100839.75;4977772;28;20031;-66
2023/04/28 07:08:09;;;;;;;18.38;15.77;;;;;;;9.54;100.00;100843.41;4986793;28;20084;-66
2023/04/28 07:10:34;;;;;;;17.98;15.70;;;;;;;9.58;100.00;100843.59;4989090;28;20027;-65
2023/04/28 07:12:59;;;;;;;19.95;17.85;;;;;;;9.65;100.00;100854.13;4987642;28;20018;-66
2023/04/28 07:15:25;;;;;;;16.73;15.13;;;;;;;9.69;100.00;100840.50;4987347;28;20022;-66
2023/04/28 07:17:50;;;;;;;19.40;16.35;;;;;;;9.75;100.00;100845.00;4986541;28;20079;-66
2023/04/28 07:20:15;;;;;;;17.35;15.20;;;;;;;9.79;100.00;100834.81;4988022;28;20056;-66
2023/04/28 07:22:41;;;;;;;20.20;16.85;;;;;;;9.88;100.00;100831.66;4986511;28;20028;-66
2023/04/28 07:25:07;;;;;;;17.92;16.02;;;;;;;10.00;100.00;100836.38;4987229;28;20026;-66
2023/04/28 07:27:33;;;;;;;18.75;16.65;;;;;;;10.07;100.00;100840.94;4986701;28;20416;-66
2023/04/28 07:29:58;;;;;;;19.52;17.55;;;;;;;10.15;100.00;100842.91;4987601;28;20057;-66
2023/04/28 07:32:23;;;;;;;18.85;17.05;;;;;;;10.19;100.00;100837.91;4985491;28;20026;-66
2023/04/28 07:34:48;;;;;;;19.63;16.73;;;;;;;10.24;100.00;100844.91;4986883;28;20441;-65
2023/04/28 07:37:14;;;;;;;20.02;16.77;;;;;;;10.29;100.00;100849.44;4986212;28;20025;-65
2023/04/28 07:39:40;;;;;;;19.70;16.90;;;;;;;10.35;100.00;100853.06;4986944;28;20030;-66
2023/04/28 07:42:06;;;;;;;19.50;16.88;;;;;;;10.40;100.00;100848.91;4985347;28;20023;-66
2023/04/28 07:44:31;;;;;;;17.38;15.50;;;;;;;10.43;100.00;100851.63;4987265;28;20029;-66
2023/04/28 07:46:58;;;;;;;16.25;14.60;;;;;;;10.50;100.00;100853.59;4976776;28;20175;-66
2023/04/28 07:49:24;;;;;;;17.73;15.77;;;;;;;10.53;100.00;100850.22;4969674;28;20038;-66
2023/04/28 07:51:52;;;;;;;17.65;15.95;;;;;;;10.54;100.00;100855.44;4979959;28;20018;-66
2023/04/28 07:54:17;;;;;;;17.70;15.98;;;;;;;10.57;100.00;100855.56;4965023;28;20031;-66
2023/04/28 07:56:43;;;;;;;17.60;15.85;;;;;;;10.60;100.00;100852.19;4964303;28;20458;-66
2023/04/28 07:59:08;;;;;;;17.77;15.98;;;;;;;10.65;100.00;100852.34;4977879;28;20034;-66
2023/04/28 08:01:33;;;;;;;18.00;16.10;;;;;;;10.66;100.00;100848.91;4981964;28;20467;-67
2023/04/28 08:03:59;;;;;;;19.05;17.05;;;;;;;10.70;100.00;100855.97;4968468;28;20050;-66
2023/04/28 08:06:24;;;;;;;19.92;17.92;;;;;;;10.75;100.00;100845.72;4958411;28;20093;-66
2023/04/28 08:08:52;;;;;;;18.77;16.92;;;;;;;10.78;100.00;100848.41;4964526;28;20019;-66
2023/04/28 08:11:17;;;;;;;19.50;17.50;;;;;;;10.84;100.00;100848.63;4971204;28;20029;-66
2023/04/28 08:13:42;;;;;;;20.63;18.55;;;;;;;10.89;100.00;100853.94;4957908;28;20471;-66
2023/04/28 08:16:08;;;;;;;19.85;17.83;;;;;;;10.92;100.00;100852.31;4974211;28;20117;-66
2023/04/28 08:18:33;;;;;;;19.08;17.23;;;;;;;10.95;100.00;100854.13;4984684;28;20022;-66
2023/04/28 08:20:58;;;;;;;20.20;18.23;;;;;;;10.97;100.00;100855.06;4978217;28;20093;-66
2023/04/28 08:23:27;;;;;;;20.83;18.73;;;;;;;10.98;100.00;100851.63;4961275;28;20026;-66
2023/04/28 08:25:52;;;;;;;18.77;16.92;;;;;;;11.02;100.00;100847.41;4962680;28;20027;-66
2023/04/28 08:28:18;;;;;;;19.92;18.02;;;;;;;11.03;100.00;100850.06;4969371;28;20939;-66
2023/04/28 08:30:43;;;;;;;21.50;18.30;;;;;;;11.00;100.00;100859.44;4976083;28;20418;-66
2023/04/28 08:33:08;;;;;;;21.63;19.33;;;;;;;10.99;100.00;100858.56;4962297;28;20428;-65
2023/04/28 08:35:34;;;;;;;21.08;19.17;;;;;;;11.01;100.00;100854.31;4959390;28;20128;-66
2023/04/28 08:37:59;;;;;;;20.20;18.15;;;;;;;11.03;100.00;100852.66;4959906;28;20027;-66
2023/04/28 08:40:25;;;;;;;20.38;18.42;;;;;;;11.07;100.00;100855.31;4967761;28;20066;-66
2023/04/28 08:42:51;;;;;;;21.45;19.20;;;;;;;11.12;100.00;100858.94;4974015;28;20113;-66
2023/04/28 08:45:16;;;;;;;22.58;20.25;;;;;;;11.11;100.00;100852.00;4971158;28;20126;-66
2023/04/28 08:47:44;;;;;;;22.55;20.25;;;;;;;11.10;100.00;100851.09;4968398;28;20182;-66
2023/04/28 08:50:11;;;;;;;23.95;21.50;;;;;;;11.13;100.00;100852.94;4976613;28;20018;-66
2023/04/28 08:52:38;;;;;;;24.20;21.70;;;;;;;11.13;100.00;100861.59;4962326;28;20019;-66
2023/04/28 08:55:08;;;;;;;23.75;21.38;;;;;;;11.20;100.00;100856.56;4961058;28;20023;-66
2023/04/28 08:57:48;;;;;;;17.70;16.00;;;;;;;11.23;100.00;100859.25;4962569;28;20042;-67
2023/04/28 09:00:14;;;;;;;25.90;23.13;;;;;;;11.23;100.00;100862.75;4968441;28;20281;-66
2023/04/28 09:02:42;;;;;;;24.55;21.88;;;;;;;11.27;100.00;100859.41;4984632;28;20019;-66
2023/04/28 09:05:09;;;;;;;25.23;22.73;;;;;;;11.33;100.00;100865.59;4962164;28;20058;-66
2023/04/28 09:07:35;;;;;;;24.95;22.33;;;;;;;11.33;100.00;100868.19;4961360;28;20394;-66
2023/04/28 09:10:21;;;;;;;27.10;24.15;;;;;;;11.33;100.00;100863.91;4960473;28;20667;-66
2023/04/28 09:12:49;;;;;;;25.70;23.02;;;;;;;11.35;100.00;100859.63;4960296;28;20015;-66
2023/04/28 09:15:44;;;;;;;24.48;21.88;;;;;;;11.33;100.00;100853.53;4965498;28;20081;-66
2023/04/28 09:18:13;;;;;;;28.33;24.17;;;;;;;11.39;100.00;100858.00;4966798;28;20090;-67
2023/04/28 09:20:38;;;;;;;27.73;24.73;;;;;;;11.45;100.00;100853.00;4972004;28;20472;-66
2023/04/28 09:23:18;;;;;;;25.13;22.52;;;;;;;11.43;100.00;100853.75;4970525;28;20097;-67
2023/04/28 09:25:56;;;;;;;27.10;24.23;;;;;;;11.51;100.00;100853.16;4973890;28;20333;-66
2023/04/28 09:28:22;;;;;;;26.75;23.33;;;;;;;11.61;100.00;100856.00;4963134;28;20027;-67
2023/04/28 09:30:47;;;;;;;27.40;23.52;;;;;;;11.66;100.00;100857.00;4981596;28;20026;-67
2023/04/28 09:33:13;;;;;;;25.35;22.55;;;;;;;11.74;100.00;100855.53;4968321;28;20031;-66
2023/04/28 09:35:39;;;;;;;25.77;23.23;;;;;;;11.82;100.00;100855.72;4974222;28;20109;-67
2023/04/28 09:38:05;;;;;;;25.73;22.95;;;;;;;11.91;100.00;100856.81;4962400;28;20027;-66
2023/04/28 09:40:31;;;;;;;25.73;22.52;;;;;;;11.97;100.00;100854.38;4971050;28;20038;-66
2023/04/28 09:42:56;;;;;;;25.00;22.45;;;;;;;12.04;100.00;100858.00;4967575;28;20055;-67
2023/04/28 09:45:21;;;;;;;24.20;21.73;;;;;;;12.09;100.00;100851.22;4967219;28;20069;-66
2023/04/28 09:47:47;;;;;;;25.38;20.27;;;;;;;12.14;100.00;100860.06;4963413;28;20439;-67
2023/04/28 09:50:15;;;;;;;22.80;20.27;;;;;;;12.16;100.00;100860.94;4972165;28;20093;-66
2023/04/28 09:52:47;;;;;;;22.40;20.20;;;;;;;12.17;100.00;100870.53;4961518;28;20031;-66
2023/04/28 09:55:14;;;;;;;21.55;19.38;;;;;;;12.18;100.00;100866.22;4966477;28;20027;-66
2023/04/28 09:57:39;;;;;;;22.52;20.17;;;;;;;12.19;100.00;100867.97;4967590;28;20041;-66
2023/04/28 10:00:07;;;;;;;22.05;19.75;;;;;;;12.22;100.00;100868.91;4968882;28;20471;-66
2023/04/28 10:02:35;;;;;;;21.58;19.42;;;;;;;12.22;100.00;100866.31;4959500;28;20035;-66
2023/04/28 10:05:00;;;;;;;21.98;19.02;;;;;;;12.21;100.00;100866.28;4965558;28;20023;-67
2023/04/28 10:07:26;;;;;;;23.13;20.73;;;;;;;12.23;100.00;100870.66;4971740;28;20036;-66
2023/04/28 10:09:52;;;;;;;25.20;22.67;;;;;;;12.24;100.00;100866.34;4974060;28;20026;-67
2023/04/28 10:12:22;;;;;;;24.10;21.70;;;;;;;12.22;100.00;100874.13;4959866;28;20089;-66
2023/04/28 10:14:49;;;;;;;30.80;27.30;;;;;;;12.22;100.00;100868.91;4959079;28;20078;-67
2023/04/28 10:17:16;;;;;;;34.90;29.85;;;;;;;12.22;100.00;100873.22;4957468;28;20078;-66
2023/04/28 10:19:45;;;;;;;39.85;33.33;;;;;;;12.22;100.00;100868.03;4961331;28;20078;-67
2023/04/28 10:22:34;;;;;;;42.78;36.97;;;;;;;12.26;100.00;100867.28;4963006;28;20035;-66
2023/04/28 10:25:03;;;;;;;45.50;37.83;;;;;;;12.29;100.00;100869.06;4963517;28;20031;-66
2023/04/28 10:27:30;;;;;;;50.15;40.70;;;;;;;12.32;100.00;100869.16;4968883;28;20034;-67
2023/04/28 10:30:09;;;;;;;49.17;40.35;;;;;;;12.35;100.00;100864.91;4970462;28;20035;-66
2023/04/28 10:32:35;;;;;;;46.92;39.10;;;;;;;12.40;100.00;100861.53;4962340;28;20424;-66
2023/04/28 10:35:31;;;;;;;54.50;41.67;;;;;;;12.40;100.00;100857.22;4960349;28;20051;-67
2023/04/28 10:38:16;;;;;;;48.50;38.28;;;;;;;12.41;100.00;100864.16;4952919;28;20031;-66
2023/04/28 10:40:43;;;;;;;43.47;38.28;;;;;;;12.43;100.00;100866.84;4952327;28;20035;-66
2023/04/28 10:43:10;;;;;;;49.78;39.85;;;;;;;12.44;100.00;100856.47;4965548;28;20023;-66
2023/04/28 10:45:51;;;;;;;45.38;38.60;;;;;;;12.48;100.00;100866.09;4957705;28;20494;-67
2023/04/28 10:48:38;;;;;;;44.08;38.80;;;;;;;12.53;100.00;100858.41;4960782;28;20114;-66
2023/04/28 10:51:08;;;;;;;41.78;37.25;;;;;;;12.60;100.00;100854.25;4967246;28;20039;-67
2023/04/28 10:53:45;;;;;;;41.03;36.03;;;;;;;12.67;100.00;100860.44;4960673;28;20041;-66
2023/04/28 10:56:18;;;;;;;41.42;37.03;;;;;;;12.74;100.00;100846.75;4961842;28;20098;-66
2023/04/28 10:58:45;;;;;;;39.22;35.13;;;;;;;12.81;100.00;100846.06;4964417;28;20042;-66
2023/04/28 11:01:20;;;;;;;37.20;33.42;;;;;;;12.88;100.00;100854.00;4968575;28;20030;-67
2023/04/28 11:03:45;;;;;;;36.22;32.63;;;;;;;12.92;100.00;100848.91;4964069;28;20137;-66
2023/04/28 11:06:22;;;;;;;33.83;30.50;;;;;;;12.96;100.00;100845.53;4963342;28;20102;-66